Terminal Aerodrome Forecast
Issued by NWS

Home | Current Version | Previous Version | Graphics & Text | Print | Product List | Glossary On
Versions: 1 2 3 4 5 6 7 8 9 10 11 12 13 14 15 16 17 18 19 20 21
000
FTUS43 KABR 230529
TAFMBG
TAF
KMBG 230529Z 2306/2406 30006KT P6SM OVC100
     FM231200 34011KT P6SM BKN090
     FM231500 35017G24KT P6SM BKN045
     FM240100 02011KT P6SM SCT060=

USA.gov is the U.S. government's official web portal to all federal, state and local government web resources and services.